createdAt,value
2023-10-21T00:01:16.564Z,91579.84
2023-10-21T00:06:19.789Z,91581.88
2023-10-21T00:11:21.421Z,91587.34
2023-10-21T00:16:22.950Z,91610.97
2023-10-21T00:21:25.982Z,91614.88
2023-10-21T00:26:27.458Z,91633.03
2023-10-21T00:31:29.025Z,91628.13
2023-10-21T00:36:31.920Z,91634.63
2023-10-21T00:41:33.489Z,91635.13
2023-10-21T00:46:35.419Z,91648.13
2023-10-21T00:51:39.345Z,91654.88
2023-10-21T00:56:41.347Z,91654.09
2023-10-21T01:01:43.061Z,91652.56
2023-10-21T01:06:45.987Z,91659.03
2023-10-21T01:11:47.554Z,91658.50
2023-10-21T01:16:49.467Z,91675.94
2023-10-21T01:21:52.308Z,91673.78
2023-10-21T01:26:55.170Z,91682.88
2023-10-21T01:31:56.689Z,91697.94
2023-10-21T01:36:58.285Z,91702.81
2023-10-21T01:42:01.168Z,91701.56
2023-10-21T01:47:02.838Z,91705.38
2023-10-21T01:52:05.283Z,91716.03
2023-10-21T01:57:08.176Z,91727.97
2023-10-21T02:02:09.763Z,91743.53
2023-10-21T02:07:11.361Z,91751.28
2023-10-21T02:12:14.308Z,91760.63
2023-10-21T02:17:15.939Z,91774.09
2023-10-21T02:22:17.542Z,91780.38
2023-10-21T02:27:20.506Z,91798.78
2023-10-21T02:32:22.076Z,91784.78
2023-10-21T02:37:23.720Z,91797.50
2023-10-21T02:42:26.526Z,91803.75
2023-10-21T02:47:28.122Z,91809.22
2023-10-21T02:52:29.743Z,91812.66
2023-10-21T02:57:32.579Z,91813.72
2023-10-21T03:02:34.320Z,91830.09
2023-10-21T03:07:36.026Z,91837.63
2023-10-21T03:12:39.960Z,91844.88
2023-10-21T03:17:42.459Z,91856.34
2023-10-21T03:22:44.024Z,91856.13
2023-10-21T03:27:46.829Z,91866.03
2023-10-21T03:32:48.495Z,91868.09
2023-10-21T03:37:50.069Z,91861.81
2023-10-21T03:42:52.970Z,91873.19
2023-10-21T03:47:54.593Z,91878.38
2023-10-21T03:52:56.258Z,91882.22
2023-10-21T03:57:59.374Z,91891.03
2023-10-21T04:03:01.144Z,91889.41
2023-10-21T04:08:03.023Z,91895.63
2023-10-21T04:13:05.910Z,91910.16
2023-10-21T04:18:07.624Z,91925.72
2023-10-21T04:23:09.195Z,91930.94
2023-10-21T04:28:12.036Z,91932.50
2023-10-21T04:33:13.691Z,91942.88
2023-10-21T04:38:15.380Z,91960.50
2023-10-21T04:43:18.227Z,91966.28
2023-10-21T04:48:19.841Z,91970.69
2023-10-21T04:53:21.394Z,91981.06
2023-10-21T04:58:24.331Z,91986.47
2023-10-21T05:03:26.119Z,91994.78
2023-10-21T05:08:27.849Z,92004.19
2023-10-21T05:13:30.678Z,92008.91
2023-10-21T05:18:32.313Z,92009.69
2023-10-21T05:23:33.921Z,92027.63
2023-10-21T05:28:36.763Z,92034.84
2023-10-21T05:33:38.378Z,92040.84
2023-10-21T05:38:40.054Z,92053.13
2023-10-21T05:43:42.911Z,92049.50
2023-10-21T05:48:44.443Z,92067.16
2023-10-21T05:53:46.107Z,92085.34
2023-10-21T05:58:48.942Z,92097.84
2023-10-21T06:03:50.600Z,92097.91
2023-10-21T06:08:52.353Z,92113.81
2023-10-21T06:13:55.216Z,92125.78
2023-10-21T06:18:56.714Z,92128.59
2023-10-21T06:23:58.448Z,92140.91
2023-10-21T06:29:01.780Z,92151.38
2023-10-21T06:34:03.317Z,92164.13
2023-10-21T06:39:04.912Z,92168.84
2023-10-21T06:44:07.911Z,92179.38
2023-10-21T06:49:09.663Z,92194.97
2023-10-21T06:54:11.236Z,92202.56
2023-10-21T06:59:14.945Z,92201.00
2023-10-21T07:04:16.607Z,92230.91
2023-10-21T07:09:18.228Z,92221.63
2023-10-21T07:14:21.100Z,92235.63
2023-10-21T07:19:22.726Z,92242.88
2023-10-21T07:24:24.240Z,92253.34
2023-10-21T07:29:27.097Z,92261.63
2023-10-21T07:34:28.733Z,92260.94
2023-10-21T07:39:30.438Z,92271.34
2023-10-21T07:44:33.426Z,92267.28
2023-10-21T07:49:35.043Z,92269.34
2023-10-21T07:54:36.824Z,92289.41
2023-10-21T07:59:39.964Z,92299.19
2023-10-21T08:04:41.608Z,92304.97
2023-10-21T08:09:43.264Z,92306.41
2023-10-21T08:14:46.186Z,92331.28
2023-10-21T08:19:50.530Z,92331.09
2023-10-21T08:24:52.195Z,92329.88
2023-10-21T08:29:55.131Z,92349.22
2023-10-21T08:34:57.382Z,92355.03
2023-10-21T08:39:58.962Z,92363.88
2023-10-21T08:45:04.067Z,92363.41
2023-10-21T08:50:06.381Z,92363.56
2023-10-21T08:55:09.321Z,92373.44
2023-10-21T09:00:13.100Z,92381.50
2023-10-21T09:05:16.298Z,92381.00
2023-10-21T09:10:19.106Z,92394.56
2023-10-21T09:15:35.774Z,92403.19
2023-10-21T09:20:38.610Z,92405.00
2023-10-21T09:25:40.110Z,92415.03
2023-10-21T09:30:43.079Z,92413.84
2023-10-21T09:35:44.729Z,92407.84
2023-10-21T09:40:46.299Z,92409.47
2023-10-21T09:45:53.870Z,92426.72
2023-10-21T09:51:00.024Z,92424.09
2023-10-21T09:56:02.567Z,92429.31
2023-10-21T10:01:06.784Z,92428.94
2023-10-21T10:06:10.089Z,92434.31
2023-10-21T10:11:15.059Z,92434.84
2023-10-21T10:16:23.562Z,92436.47
2023-10-21T10:21:25.380Z,92442.06
2023-10-21T10:26:34.854Z,92443.59
2023-10-21T10:31:47.845Z,92431.59
2023-10-21T10:36:50.706Z,92423.75
2023-10-21T10:41:52.401Z,92423.41
2023-10-21T10:46:55.976Z,92426.78
2023-10-21T10:51:58.174Z,92425.78
2023-10-21T10:56:59.796Z,92425.22
2023-10-21T11:02:02.828Z,92428.50
2023-10-21T11:07:04.437Z,92437.66
2023-10-21T11:12:10.465Z,92447.66
2023-10-21T11:17:13.919Z,92452.91
2023-10-21T11:22:20.617Z,92456.56
2023-10-21T11:27:22.944Z,92455.97
2023-10-21T11:32:32.107Z,92459.63
2023-10-21T11:37:33.787Z,92468.84
2023-10-21T11:42:35.525Z,92469.41
2023-10-21T11:47:38.864Z,92478.22
2023-10-21T11:52:43.738Z,92468.84
2023-10-21T11:57:45.292Z,92477.13
2023-10-21T12:02:48.446Z,92472.63
2023-10-21T12:07:50.200Z,92477.41
2023-10-21T12:12:52.450Z,92478.09
2023-10-21T12:17:55.382Z,92491.06
2023-10-21T12:22:56.943Z,92500.41
2023-10-21T12:27:58.484Z,92507.44
2023-10-21T12:33:01.368Z,92494.59
2023-10-21T12:38:03.277Z,92509.84
2023-10-21T12:43:04.876Z,92516.31
2023-10-21T12:48:08.085Z,92523.97
2023-10-21T12:53:09.672Z,92528.56
2023-10-21T12:58:11.352Z,92527.69
2023-10-21T13:03:14.563Z,92523.09
2023-10-21T13:08:16.294Z,92526.59
2023-10-21T13:13:17.784Z,92521.94
2023-10-21T13:18:20.690Z,92524.88
2023-10-21T13:23:22.379Z,92527.19
2023-10-21T13:28:23.966Z,92529.94
2023-10-21T13:33:27.020Z,92532.78
2023-10-21T13:38:28.648Z,92518.13
2023-10-21T13:43:30.312Z,92518.50
2023-10-21T13:48:33.331Z,92530.06
2023-10-21T13:53:35.047Z,92532.59
2023-10-21T13:58:36.563Z,92543.22
2023-10-21T14:03:39.523Z,92544.59
2023-10-21T14:08:41.176Z,92553.72
2023-10-21T14:13:42.753Z,92555.28
2023-10-21T14:18:45.630Z,92567.72
2023-10-21T14:23:47.145Z,92586.47
2023-10-21T14:28:48.621Z,92593.56
2023-10-21T14:33:51.497Z,92597.91
2023-10-21T14:38:53.092Z,92590.59
2023-10-21T14:43:54.620Z,92600.31
2023-10-21T14:48:57.589Z,92603.94
2023-10-21T14:53:59.093Z,92591.50
2023-10-21T14:59:00.599Z,92590.06
2023-10-21T15:04:03.828Z,92572.13
2023-10-21T15:09:05.589Z,92570.69
2023-10-21T15:14:07.269Z,92592.72
2023-10-21T15:19:10.102Z,92610.81
2023-10-21T15:24:11.788Z,92577.09
2023-10-21T15:29:13.415Z,92606.22
2023-10-21T15:34:16.252Z,92602.72
2023-10-21T15:39:17.797Z,92614.06
2023-10-21T15:44:19.359Z,92622.03
2023-10-21T15:49:22.216Z,92639.44
2023-10-21T15:54:23.716Z,92654.09
2023-10-21T15:59:25.329Z,92644.97
2023-10-21T16:04:28.299Z,92646.53
2023-10-21T16:09:29.935Z,92652.66
2023-10-21T16:14:31.507Z,92654.91
2023-10-21T16:19:34.581Z,92648.38
2023-10-21T16:24:36.221Z,92656.72
2023-10-21T16:29:37.957Z,92627.81
2023-10-21T16:34:41.785Z,92640.91
2023-10-21T16:39:43.400Z,92666.00
2023-10-21T16:44:44.934Z,92674.09
2023-10-21T16:49:47.815Z,92682.44
2023-10-21T16:54:49.515Z,92674.78
2023-10-21T16:59:51.015Z,92690.34
2023-10-21T17:04:53.849Z,92703.47
2023-10-21T17:09:55.359Z,92714.63
2023-10-21T17:14:56.971Z,92710.91
2023-10-21T17:19:59.864Z,92707.75
2023-10-21T17:25:01.368Z,92717.47
2023-10-21T17:30:03.007Z,92733.28
2023-10-21T17:35:07.026Z,92739.03
2023-10-21T17:40:09.645Z,92753.69
2023-10-21T17:45:11.390Z,92754.97
2023-10-21T17:50:14.470Z,92764.41
2023-10-21T17:55:16.128Z,92763.84
2023-10-21T18:00:18.084Z,92775.72
2023-10-21T18:05:21.125Z,92781.13
2023-10-21T18:10:22.628Z,92790.66
2023-10-21T18:15:25.222Z,92799.19
2023-10-21T18:20:28.131Z,92786.78
2023-10-21T18:25:32.532Z,92793.78
2023-10-21T18:30:34.219Z,92799.75
2023-10-21T18:35:37.150Z,92796.94
2023-10-21T18:40:38.710Z,92820.53
2023-10-21T18:45:40.272Z,92823.13
2023-10-21T18:50:43.194Z,92830.47
2023-10-21T18:55:45.050Z,92817.66
2023-10-21T19:00:46.770Z,92807.38
2023-10-21T19:05:53.065Z,92823.97
2023-10-21T19:10:54.699Z,92839.22
2023-10-21T19:15:56.264Z,92848.47
2023-10-21T19:21:05.977Z,92846.78
2023-10-21T19:26:07.492Z,92854.63
2023-10-21T19:31:10.321Z,92875.50
2023-10-21T19:36:13.467Z,92883.53
2023-10-21T19:41:16.057Z,92878.09
2023-10-21T19:46:17.689Z,92869.78
2023-10-21T19:51:20.646Z,92883.72
2023-10-21T19:56:22.200Z,92877.66
2023-10-21T20:01:23.933Z,92881.06
2023-10-21T20:06:29.121Z,92884.88
2023-10-21T20:11:30.824Z,92893.16
2023-10-21T20:16:32.400Z,92895.16
2023-10-21T20:21:35.361Z,92895.63
2023-10-21T20:26:36.904Z,92905.19
2023-10-21T20:31:38.501Z,92896.41
2023-10-21T20:36:41.451Z,92885.56
2023-10-21T20:41:43.141Z,92895.84
2023-10-21T20:46:44.709Z,92898.56
2023-10-21T20:51:48.234Z,92916.53
2023-10-21T20:56:54.127Z,92911.31
2023-10-21T21:01:55.735Z,92911.88
2023-10-21T21:06:58.738Z,92912.78
2023-10-21T21:12:00.349Z,92912.34
2023-10-21T21:17:01.895Z,92903.97
2023-10-21T21:22:04.884Z,92913.06
2023-10-21T21:27:06.455Z,92923.25
2023-10-21T21:32:07.980Z,92921.22
2023-10-21T21:37:10.996Z,92924.91
2023-10-21T21:42:12.650Z,92927.28
2023-10-21T21:47:14.182Z,92923.34
2023-10-21T21:52:17.026Z,92926.38
2023-10-21T21:57:18.572Z,92932.00
2023-10-21T22:02:20.168Z,92935.75
2023-10-21T22:07:23.047Z,92936.19
2023-10-21T22:12:24.574Z,92934.16
2023-10-21T22:17:26.182Z,92935.75
2023-10-21T22:22:29.028Z,92935.53
2023-10-21T22:27:30.528Z,92954.50
2023-10-21T22:32:32.220Z,92954.50
2023-10-21T22:37:35.224Z,92955.19
2023-10-21T22:42:36.729Z,92976.41
2023-10-21T22:47:38.371Z,92974.22
2023-10-21T22:52:41.534Z,92979.56
2023-10-21T22:57:43.093Z,92985.06
2023-10-21T23:02:44.700Z,92976.56
2023-10-21T23:07:47.632Z,92978.47
2023-10-21T23:12:50.153Z,92983.50
2023-10-21T23:17:52.844Z,92980.78
2023-10-21T23:22:55.986Z,92984.16
2023-10-21T23:27:57.517Z,92981.78
2023-10-21T23:32:59.336Z,92987.28
2023-10-21T23:38:02.208Z,92985.69
2023-10-21T23:43:03.751Z,92986.13
2023-10-21T23:48:07.172Z,92985.69
2023-10-21T23:53:10.574Z,93006.03
2023-10-21T23:58:12.203Z,93003.53
